createdAt,value
2019-04-30T00:00:40.816Z,1013.06
2019-04-30T00:01:30.072Z,1013.08
2019-04-30T00:02:35.642Z,1013.15
2019-04-30T00:03:31.056Z,1013.08
2019-04-30T00:04:34.592Z,1013.13
2019-04-30T00:05:31.024Z,1013.09
2019-04-30T00:06:34.642Z,1013.07
2019-04-30T00:07:31.048Z,1013.11
2019-04-30T00:08:34.459Z,1013.12
2019-04-30T00:09:30.989Z,1013.12
2019-04-30T00:10:39.585Z,1013.09
2019-04-30T00:11:30.960Z,1013.11
2019-04-30T00:12:30.948Z,1013.11
2019-04-30T00:13:30.996Z,1013.08
2019-04-30T00:14:37.250Z,1013.11
2019-04-30T00:15:30.933Z,1013.08
2019-04-30T00:16:31.052Z,1013.09
2019-04-30T00:17:30.902Z,1013.08
2019-04-30T00:18:34.897Z,1013.07
2019-04-30T00:19:30.919Z,1013.10
2019-04-30T00:20:34.223Z,1013.02
2019-04-30T00:21:30.863Z,1013.09
2019-04-30T00:22:33.808Z,1013.10
2019-04-30T00:23:30.927Z,1013.16
2019-04-30T00:24:29.829Z,1013.11
2019-04-30T00:25:29.818Z,1013.09
2019-04-30T00:26:29.806Z,1013.09
2019-04-30T00:27:30.287Z,1013.07
2019-04-30T00:28:29.781Z,1013.04
2019-04-30T00:29:30.939Z,1013.09
2019-04-30T00:30:29.787Z,1013.05
2019-04-30T00:31:40.369Z,1012.99
2019-04-30T00:32:29.741Z,1012.91
2019-04-30T00:33:29.725Z,1012.90
2019-04-30T00:34:30.947Z,1012.98
2019-04-30T00:35:30.746Z,1012.91
2019-04-30T00:36:34.126Z,1012.86
2019-04-30T00:37:30.684Z,1012.89
2019-04-30T00:38:33.531Z,1012.92
2019-04-30T00:39:30.663Z,1012.86
2019-04-30T00:40:30.215Z,1012.91
2019-04-30T00:41:30.323Z,1012.94
2019-04-30T00:42:29.639Z,1012.84
2019-04-30T00:43:29.651Z,1012.86
2019-04-30T00:44:29.612Z,1012.82
2019-04-30T00:45:29.598Z,1012.81
2019-04-30T00:46:29.614Z,1012.78
2019-04-30T00:47:29.595Z,1012.80
2019-04-30T00:48:31.175Z,1012.90
2019-04-30T00:49:29.589Z,1012.81
2019-04-30T00:50:33.957Z,1012.85
2019-04-30T00:51:30.539Z,1012.92
2019-04-30T00:52:33.780Z,1012.87
2019-04-30T00:53:30.512Z,1012.79
2019-04-30T00:54:30.976Z,1012.81
2019-04-30T00:55:29.514Z,1012.71
2019-04-30T00:56:29.489Z,1012.75
2019-04-30T00:57:29.477Z,1012.79
2019-04-30T00:58:30.384Z,1012.77
2019-04-30T00:59:29.456Z,1012.74
2019-04-30T01:00:29.744Z,1012.74
2019-04-30T01:01:29.445Z,1012.76
2019-04-30T01:02:40.876Z,1012.78
2019-04-30T01:03:29.413Z,1012.73
2019-04-30T01:04:29.417Z,1012.85
2019-04-30T01:05:29.389Z,1012.71
2019-04-30T01:06:29.382Z,1012.77
2019-04-30T01:07:29.379Z,1012.66
2019-04-30T01:08:29.360Z,1012.69
2019-04-30T01:09:29.369Z,1012.67
2019-04-30T01:10:29.382Z,1012.67
2019-04-30T01:11:29.331Z,1012.64
2019-04-30T01:12:35.912Z,1012.62
2019-04-30T01:13:30.301Z,1012.65
2019-04-30T01:14:32.002Z,1012.68
2019-04-30T01:15:29.299Z,1012.62
2019-04-30T01:16:32.931Z,1012.64
2019-04-30T01:17:29.965Z,1012.66
2019-04-30T01:18:32.073Z,1012.62
2019-04-30T01:19:32.299Z,1012.63
2019-04-30T01:20:32.636Z,1012.64
2019-04-30T01:21:29.222Z,1012.70
2019-04-30T01:22:32.850Z,1012.65
2019-04-30T01:23:29.643Z,1012.59
2019-04-30T01:24:31.571Z,1012.72
2019-04-30T01:25:29.183Z,1012.60
2019-04-30T01:26:30.997Z,1012.67
2019-04-30T01:27:29.158Z,1012.63
2019-04-30T01:28:29.202Z,1012.64
2019-04-30T01:29:31.102Z,1012.58
2019-04-30T01:30:30.120Z,1012.57
2019-04-30T01:31:31.678Z,1012.56
2019-04-30T01:32:30.100Z,1012.54
2019-04-30T01:33:39.869Z,1012.50
2019-04-30T01:34:29.456Z,1012.49
2019-04-30T01:35:32.729Z,1012.52
2019-04-30T01:36:29.362Z,1012.48
2019-04-30T01:37:32.732Z,1012.46
2019-04-30T01:38:29.045Z,1012.48
2019-04-30T01:39:31.616Z,1012.46
2019-04-30T01:40:29.033Z,1012.41
2019-04-30T01:41:31.393Z,1012.46
2019-04-30T01:42:28.994Z,1012.46
2019-04-30T01:43:33.547Z,1012.44
2019-04-30T01:44:29.971Z,1012.40
2019-04-30T01:45:31.574Z,1012.39
2019-04-30T01:46:29.202Z,1012.40
2019-04-30T01:47:31.195Z,1012.38
2019-04-30T01:48:29.285Z,1012.38
2019-04-30T01:49:36.317Z,1012.37
2019-04-30T01:50:33.840Z,1012.37
2019-04-30T01:51:29.902Z,1012.38
2019-04-30T01:52:35.013Z,1012.40
2019-04-30T01:53:29.878Z,1012.37
2019-04-30T01:54:29.227Z,1012.35
2019-04-30T01:55:29.422Z,1012.38
2019-04-30T01:56:28.987Z,1012.38
2019-04-30T01:57:29.302Z,1012.37
2019-04-30T01:58:30.199Z,1012.33
2019-04-30T01:59:29.176Z,1012.34
2019-04-30T02:00:29.333Z,1012.36
2019-04-30T02:01:31.142Z,1012.38
2019-04-30T02:02:28.801Z,1012.36
2019-04-30T02:03:29.301Z,1012.35
2019-04-30T02:04:39.371Z,1012.34
2019-04-30T02:05:28.856Z,1012.36
2019-04-30T02:06:29.445Z,1012.34
2019-04-30T02:07:28.897Z,1012.33
2019-04-30T02:08:29.503Z,1012.29
2019-04-30T02:09:28.755Z,1012.32
2019-04-30T02:10:28.697Z,1012.31
2019-04-30T02:11:28.943Z,1012.29
2019-04-30T02:12:29.700Z,1012.29
2019-04-30T02:13:31.182Z,1012.39
2019-04-30T02:14:28.778Z,1012.35
2019-04-30T02:15:29.167Z,1012.37
2019-04-30T02:16:29.094Z,1012.39
2019-04-30T02:17:29.281Z,1012.39
2019-04-30T02:18:29.678Z,1012.45
2019-04-30T02:19:28.807Z,1012.43
2019-04-30T02:20:28.871Z,1012.43
2019-04-30T02:21:30.065Z,1012.45
2019-04-30T02:22:31.163Z,1012.41
2019-04-30T02:23:29.725Z,1012.44
2019-04-30T02:24:28.910Z,1012.39
2019-04-30T02:25:29.602Z,1012.41
2019-04-30T02:26:28.724Z,1012.40
2019-04-30T02:27:29.435Z,1012.41
2019-04-30T02:28:29.006Z,1012.31
2019-04-30T02:29:29.685Z,1012.37
2019-04-30T02:30:30.885Z,1012.37
2019-04-30T02:31:30.994Z,1012.41
2019-04-30T02:32:30.417Z,1012.38
2019-04-30T02:33:30.615Z,1012.32
2019-04-30T02:34:30.302Z,1012.32
2019-04-30T02:35:40.640Z,1012.39
2019-04-30T02:36:29.943Z,1012.38
2019-04-30T02:37:30.102Z,1012.34
2019-04-30T02:38:30.127Z,1012.31
2019-04-30T02:39:30.246Z,1012.26
2019-04-30T02:40:30.175Z,1012.28
2019-04-30T02:41:29.276Z,1012.31
2019-04-30T02:42:29.675Z,1012.30
2019-04-30T02:43:30.053Z,1012.32
2019-04-30T02:44:29.313Z,1012.33
2019-04-30T02:45:29.968Z,1012.26
2019-04-30T02:46:31.943Z,1012.26
2019-04-30T02:47:30.198Z,1012.25
2019-04-30T02:48:29.495Z,1012.26
2019-04-30T02:49:30.361Z,1012.24
2019-04-30T02:50:29.400Z,1012.22
2019-04-30T02:51:29.898Z,1012.18
2019-04-30T02:52:29.383Z,1012.22
2019-04-30T02:53:29.246Z,1012.24
2019-04-30T02:54:29.641Z,1012.21
2019-04-30T02:55:29.670Z,1012.23
2019-04-30T02:56:30.073Z,1012.25
2019-04-30T02:57:29.964Z,1012.19
2019-04-30T02:58:29.394Z,1012.25
2019-04-30T02:59:30.013Z,1012.24
2019-04-30T03:00:29.810Z,1012.23
2019-04-30T03:01:30.553Z,1012.25
2019-04-30T03:02:29.158Z,1012.27
2019-04-30T03:03:29.948Z,1012.21
2019-04-30T03:04:29.413Z,1012.15
2019-04-30T03:05:30.964Z,1012.19
2019-04-30T03:06:40.205Z,1012.23
2019-04-30T03:07:29.481Z,1012.21
2019-04-30T03:08:29.744Z,1012.22
2019-04-30T03:09:29.718Z,1012.19
2019-04-30T03:10:30.201Z,1012.14
2019-04-30T03:11:30.138Z,1012.17
2019-04-30T03:12:30.580Z,1012.16
2019-04-30T03:13:29.939Z,1012.18
2019-04-30T03:14:30.077Z,1012.17
2019-04-30T03:15:29.862Z,1012.17
2019-04-30T03:16:30.292Z,1012.19
2019-04-30T03:17:29.397Z,1012.12
2019-04-30T03:18:30.215Z,1012.18
2019-04-30T03:19:29.574Z,1012.16
2019-04-30T03:20:35.537Z,1012.14
2019-04-30T03:21:29.096Z,1012.19
2019-04-30T03:22:30.140Z,1012.20
2019-04-30T03:23:29.335Z,1012.17
2019-04-30T03:24:29.544Z,1012.17
2019-04-30T03:25:29.800Z,1012.17
2019-04-30T03:26:29.716Z,1012.18
2019-04-30T03:27:30.140Z,1012.15
2019-04-30T03:28:30.119Z,1012.17
2019-04-30T03:29:30.320Z,1012.16
2019-04-30T03:30:32.175Z,1012.19
2019-04-30T03:31:32.034Z,1012.19
2019-04-30T03:32:35.789Z,1012.15
2019-04-30T03:33:32.530Z,1012.10
2019-04-30T03:34:31.893Z,1012.12
2019-04-30T03:35:32.306Z,1012.13
2019-04-30T03:36:32.142Z,1012.06
2019-04-30T03:37:39.649Z,1012.09
2019-04-30T03:38:30.068Z,1012.06
2019-04-30T03:39:29.692Z,1012.03
2019-04-30T03:40:30.062Z,1012.04
2019-04-30T03:41:33.069Z,1012.04
2019-04-30T03:42:29.571Z,1012.03
2019-04-30T03:43:30.178Z,1012.04
2019-04-30T03:44:31.615Z,1012.07
2019-04-30T03:45:30.044Z,1012.03
2019-04-30T03:46:29.790Z,1012.05
2019-04-30T03:47:30.053Z,1011.99
2019-04-30T03:48:29.376Z,1012.00
2019-04-30T03:49:29.684Z,1011.95
2019-04-30T03:50:32.889Z,1012.02
2019-04-30T03:51:30.257Z,1011.98
2019-04-30T03:52:29.188Z,1012.04
2019-04-30T03:53:29.678Z,1012.03
2019-04-30T03:54:29.269Z,1012.04
2019-04-30T03:55:29.431Z,1012.01
2019-04-30T03:56:29.820Z,1012.00
2019-04-30T03:57:30.117Z,1012.06
2019-04-30T03:58:29.343Z,1011.98
2019-04-30T03:59:29.823Z,1012.00
2019-04-30T04:00:29.902Z,1011.94
2019-04-30T04:01:29.448Z,1012.01
2019-04-30T04:02:30.043Z,1012.04
2019-04-30T04:03:29.716Z,1012.03
2019-04-30T04:04:27.488Z,1012.03
2019-04-30T04:05:29.676Z,1012.03
2019-04-30T04:06:29.266Z,1012.07
2019-04-30T04:07:29.807Z,1012.09
2019-04-30T04:08:39.520Z,1012.08
2019-04-30T04:09:29.785Z,1012.09
2019-04-30T04:10:29.764Z,1012.15
2019-04-30T04:11:29.573Z,1012.11
2019-04-30T04:12:29.975Z,1012.08
2019-04-30T04:13:30.073Z,1012.14
2019-04-30T04:14:29.666Z,1012.13
2019-04-30T04:15:29.769Z,1012.11
2019-04-30T04:16:29.361Z,1012.12
2019-04-30T04:17:27.358Z,1012.14
2019-04-30T04:18:30.072Z,1012.14
2019-04-30T04:19:29.234Z,1012.18
2019-04-30T04:20:29.783Z,1012.14
2019-04-30T04:21:29.799Z,1012.16
2019-04-30T04:22:30.284Z,1012.10
2019-04-30T04:23:32.355Z,1012.19
2019-04-30T04:24:30.253Z,1012.16
2019-04-30T04:25:29.682Z,1012.15
2019-04-30T04:26:29.664Z,1012.14
2019-04-30T04:27:29.808Z,1012.16
2019-04-30T04:28:29.765Z,1012.16
2019-04-30T04:29:29.817Z,1012.17
2019-04-30T04:30:29.618Z,1012.15
2019-04-30T04:31:29.699Z,1012.07
2019-04-30T04:32:30.481Z,1012.10
2019-04-30T04:33:29.442Z,1012.16
2019-04-30T04:34:27.160Z,1012.11
2019-04-30T04:35:29.629Z,1012.15
2019-04-30T04:36:29.945Z,1012.12
2019-04-30T04:37:29.812Z,1012.15
2019-04-30T04:38:30.169Z,1012.13
2019-04-30T04:39:38.895Z,1012.10
2019-04-30T04:40:27.104Z,1012.11
2019-04-30T04:41:29.360Z,1012.15
2019-04-30T04:42:32.510Z,1012.09
2019-04-30T04:43:30.077Z,1012.09
2019-04-30T04:44:29.378Z,1012.11
2019-04-30T04:45:27.050Z,1012.06
2019-04-30T04:46:27.051Z,1012.07
2019-04-30T04:47:27.032Z,1012.06
2019-04-30T04:48:29.691Z,1012.10
2019-04-30T04:49:27.023Z,1012.03
2019-04-30T04:50:27.026Z,1012.12
2019-04-30T04:51:37.649Z,1012.06
2019-04-30T04:52:31.115Z,1012.07
2019-04-30T04:53:26.963Z,1012.07
2019-04-30T04:54:26.955Z,1012.10
2019-04-30T04:55:29.714Z,1012.08
2019-04-30T04:56:26.953Z,1012.10
2019-04-30T04:57:26.921Z,1012.04
2019-04-30T04:58:26.914Z,1012.06
2019-04-30T04:59:26.905Z,1012.00
2019-04-30T05:00:29.198Z,1011.98
2019-04-30T05:01:28.823Z,1012.01
2019-04-30T05:02:26.867Z,1012.01
2019-04-30T05:03:26.852Z,1011.96
2019-04-30T05:04:26.855Z,1011.95
2019-04-30T05:05:26.844Z,1011.98
2019-04-30T05:06:26.880Z,1011.94
2019-04-30T05:07:28.663Z,1011.93
2019-04-30T05:08:28.454Z,1011.93
2019-04-30T05:09:28.545Z,1011.89
2019-04-30T05:10:39.122Z,1011.85
2019-04-30T05:11:26.768Z,1011.92
2019-04-30T05:12:26.799Z,1011.87
2019-04-30T05:13:26.744Z,1011.87
2019-04-30T05:14:28.696Z,1011.89
2019-04-30T05:15:26.726Z,1011.84
2019-04-30T05:16:26.717Z,1011.90
2019-04-30T05:17:26.706Z,1011.86
2019-04-30T05:18:26.737Z,1011.84
2019-04-30T05:19:28.493Z,1011.83
2019-04-30T05:20:26.677Z,1011.92
2019-04-30T05:21:26.665Z,1011.85
2019-04-30T05:22:26.654Z,1011.85
2019-04-30T05:23:26.680Z,1011.87
2019-04-30T05:24:28.563Z,1011.83
2019-04-30T05:25:26.622Z,1011.80
2019-04-30T05:26:28.581Z,1011.81
2019-04-30T05:27:26.597Z,1011.80
2019-04-30T05:28:26.590Z,1011.81
2019-04-30T05:29:26.613Z,1011.82
2019-04-30T05:30:26.569Z,1011.81
2019-04-30T05:31:28.598Z,1011.80
2019-04-30T05:32:26.541Z,1011.80
2019-04-30T05:33:28.483Z,1011.86
2019-04-30T05:34:26.523Z,1011.76
2019-04-30T05:35:28.718Z,1011.84
2019-04-30T05:36:26.507Z,1011.80
2019-04-30T05:37:28.384Z,1011.74
2019-04-30T05:38:26.483Z,1011.80
2019-04-30T05:39:28.382Z,1011.83
2019-04-30T05:40:28.658Z,1011.79
2019-04-30T05:41:36.441Z,1011.79
2019-04-30T05:42:28.195Z,1011.75
2019-04-30T05:43:26.433Z,1011.74
2019-04-30T05:44:26.421Z,1011.67
2019-04-30T05:45:26.445Z,1011.71
2019-04-30T05:46:26.400Z,1011.71
2019-04-30T05:47:26.386Z,1011.73
2019-04-30T05:48:28.139Z,1011.67
2019-04-30T05:49:26.360Z,1011.70
2019-04-30T05:50:26.349Z,1011.70
2019-04-30T05:51:26.375Z,1011.62
2019-04-30T05:52:26.337Z,1011.68
2019-04-30T05:53:26.320Z,1011.61
2019-04-30T05:54:26.309Z,1011.59
2019-04-30T05:55:26.295Z,1011.62
2019-04-30T05:56:26.291Z,1011.66
2019-04-30T05:57:26.341Z,1011.69
2019-04-30T05:58:26.268Z,1011.70
2019-04-30T05:59:26.254Z,1011.68
2019-04-30T06:00:26.246Z,1011.68
2019-04-30T06:01:26.242Z,1011.58
2019-04-30T06:02:30.617Z,1011.62
2019-04-30T06:03:30.719Z,1011.61
2019-04-30T06:04:29.308Z,1011.60
2019-04-30T06:05:26.198Z,1011.57
2019-04-30T06:06:26.184Z,1011.62
2019-04-30T06:07:26.169Z,1011.63
2019-04-30T06:08:26.165Z,1011.60
2019-04-30T06:09:31.640Z,1011.57
2019-04-30T06:10:29.296Z,1011.59
2019-04-30T06:11:26.124Z,1011.55
2019-04-30T06:12:37.051Z,1011.55
2019-04-30T06:13:26.104Z,1011.60
2019-04-30T06:14:26.100Z,1011.54
2019-04-30T06:15:26.090Z,1011.51
2019-04-30T06:16:26.129Z,1011.49
2019-04-30T06:17:26.059Z,1011.52
2019-04-30T06:18:26.052Z,1011.49
2019-04-30T06:19:26.038Z,1011.53
2019-04-30T06:20:26.033Z,1011.46
2019-04-30T06:21:26.017Z,1011.42
2019-04-30T06:22:26.045Z,1011.46
2019-04-30T06:23:26.002Z,1011.50
2019-04-30T06:24:28.061Z,1011.46
2019-04-30T06:25:32.495Z,1011.42
2019-04-30T06:26:26.964Z,1011.44
2019-04-30T06:27:25.960Z,1011.41
2019-04-30T06:28:25.986Z,1011.42
2019-04-30T06:29:25.935Z,1011.38
2019-04-30T06:30:25.927Z,1011.38
2019-04-30T06:31:32.209Z,1011.35
2019-04-30T06:32:26.906Z,1011.41
2019-04-30T06:33:25.892Z,1011.40
2019-04-30T06:34:25.890Z,1011.37
2019-04-30T06:35:25.912Z,1011.35
2019-04-30T06:36:25.858Z,1011.36
2019-04-30T06:37:25.847Z,1011.34
2019-04-30T06:38:25.838Z,1011.27
2019-04-30T06:39:25.830Z,1011.22
2019-04-30T06:40:25.820Z,1011.25
2019-04-30T06:41:25.843Z,1011.27
2019-04-30T06:42:25.795Z,1011.24
2019-04-30T06:43:36.152Z,1011.27
2019-04-30T06:44:36.963Z,1011.18
2019-04-30T06:45:26.763Z,1011.21
2019-04-30T06:46:25.749Z,1011.18
2019-04-30T06:47:32.713Z,1011.15
2019-04-30T06:48:26.729Z,1011.15
2019-04-30T06:49:25.718Z,1011.20
2019-04-30T06:50:25.704Z,1011.10
2019-04-30T06:51:25.699Z,1011.09
2019-04-30T06:52:25.682Z,1011.09
2019-04-30T06:53:25.721Z,1011.06
2019-04-30T06:54:25.664Z,1011.13
2019-04-30T06:55:25.656Z,1011.12
2019-04-30T06:56:25.641Z,1011.03
2019-04-30T06:57:25.699Z,1011.01
2019-04-30T06:58:25.621Z,1010.98
2019-04-30T06:59:25.654Z,1010.99
2019-04-30T07:00:32.972Z,1011.04
2019-04-30T07:01:26.613Z,1010.96
2019-04-30T07:02:25.580Z,1011.00
2019-04-30T07:03:25.579Z,1010.94
2019-04-30T07:04:25.564Z,1010.93
2019-04-30T07:05:25.554Z,1010.90
2019-04-30T07:06:29.798Z,1010.87
2019-04-30T07:07:36.241Z,1010.92
2019-04-30T07:08:36.122Z,1010.91
2019-04-30T07:09:30.670Z,1010.91
2019-04-30T07:10:26.507Z,1010.84
2019-04-30T07:11:25.488Z,1010.96
2019-04-30T07:12:28.012Z,1010.92
2019-04-30T07:13:25.460Z,1010.85
2019-04-30T07:14:41.769Z,1010.90
2019-04-30T07:15:25.437Z,1010.91
2019-04-30T07:16:25.449Z,1010.91
2019-04-30T07:17:25.421Z,1010.94
2019-04-30T07:18:25.404Z,1010.83
2019-04-30T07:19:34.553Z,1010.97
2019-04-30T07:20:26.400Z,1010.85
2019-04-30T07:21:25.378Z,1010.85
2019-04-30T07:22:37.594Z,1010.81
2019-04-30T07:23:26.353Z,1010.81
2019-04-30T07:24:25.342Z,1010.81
2019-04-30T07:25:25.334Z,1010.83
2019-04-30T07:26:25.317Z,1010.75
2019-04-30T07:27:25.316Z,1010.78
2019-04-30T07:28:42.717Z,1010.81
2019-04-30T07:29:26.333Z,1010.76
2019-04-30T07:30:25.277Z,1010.81
2019-04-30T07:31:25.267Z,1010.76
2019-04-30T07:32:25.272Z,1010.76
2019-04-30T07:33:25.250Z,1010.73
2019-04-30T07:34:25.278Z,1010.74
2019-04-30T07:35:25.221Z,1010.79
2019-04-30T07:36:42.451Z,1010.74
2019-04-30T07:37:26.201Z,1010.74
2019-04-30T07:38:25.189Z,1010.79
2019-04-30T07:39:29.313Z,1010.69
2019-04-30T07:40:26.216Z,1010.74
2019-04-30T07:41:25.163Z,1010.71
2019-04-30T07:42:25.148Z,1010.70
2019-04-30T07:43:25.144Z,1010.64
2019-04-30T07:44:33.333Z,1010.66
2019-04-30T07:46:41.203Z,1010.70
2019-04-30T07:47:39.558Z,1010.71
2019-04-30T07:48:39.953Z,1010.72
2019-04-30T07:49:49.841Z,1010.67
2019-04-30T07:50:41.132Z,1010.64
2019-04-30T07:51:41.373Z,1010.67
2019-04-30T07:52:56.852Z,1010.69
2019-04-30T07:53:40.490Z,1010.61
2019-04-30T07:54:39.606Z,1010.63
2019-04-30T07:55:39.280Z,1010.68
2019-04-30T07:56:41.364Z,1010.62
2019-04-30T07:57:40.402Z,1010.66
2019-04-30T07:58:39.072Z,1010.63
2019-04-30T07:59:39.720Z,1010.65
2019-04-30T08:00:40.285Z,1010.66
2019-04-30T08:01:58.082Z,1010.65
2019-04-30T08:02:43.088Z,1010.59
2019-04-30T08:03:39.574Z,1010.56
2019-04-30T08:04:40.717Z,1010.63
2019-04-30T08:05:40.150Z,1010.59
2019-04-30T08:06:39.781Z,1010.57
2019-04-30T08:07:39.161Z,1010.52
2019-04-30T08:08:40.670Z,1010.59
2019-04-30T08:09:41.877Z,1010.54
2019-04-30T08:10:39.403Z,1010.59
2019-04-30T08:11:41.949Z,1010.48
2019-04-30T08:12:42.632Z,1010.53
2019-04-30T08:13:40.653Z,1010.51
2019-04-30T08:14:39.088Z,1010.52
2019-04-30T08:15:37.641Z,1010.48
2019-04-30T08:16:44.620Z,1010.58
2019-04-30T08:17:38.929Z,1010.56
2019-04-30T08:18:39.240Z,1010.58
2019-04-30T08:19:38.464Z,1010.55
2019-04-30T08:20:39.297Z,1010.58
2019-04-30T08:21:38.710Z,1010.53
2019-04-30T08:22:40.910Z,1010.53
2019-04-30T08:23:39.581Z,1010.53
2019-04-30T08:24:39.114Z,1010.49
2019-04-30T08:25:39.060Z,1010.49
2019-04-30T08:26:39.638Z,1010.44
2019-04-30T08:27:39.317Z,1010.50
2019-04-30T08:28:38.661Z,1010.56
2019-04-30T08:29:39.364Z,1010.44
2019-04-30T08:30:39.135Z,1010.47
2019-04-30T08:31:40.590Z,1010.52
2019-04-30T08:32:38.688Z,1010.54
2019-04-30T08:33:37.449Z,1010.52
2019-04-30T08:34:39.240Z,1010.49
2019-04-30T08:35:39.618Z,1010.43
2019-04-30T08:36:38.694Z,1010.51
2019-04-30T08:37:38.549Z,1010.46
2019-04-30T08:38:39.324Z,1010.44
2019-04-30T08:39:39.595Z,1010.42
2019-04-30T08:40:39.265Z,1010.43
2019-04-30T08:41:39.241Z,1010.37
2019-04-30T08:42:39.744Z,1010.36
2019-04-30T08:43:39.275Z,1010.44
2019-04-30T08:44:39.137Z,1010.35
2019-04-30T08:45:38.546Z,1010.36
2019-04-30T08:46:38.743Z,1010.39
2019-04-30T08:47:49.358Z,1010.48
2019-04-30T08:48:47.885Z,1010.42
2019-04-30T08:49:40.495Z,1010.42
2019-04-30T08:50:39.065Z,1010.39
2019-04-30T08:51:38.793Z,1010.39
2019-04-30T08:52:39.310Z,1010.43
2019-04-30T08:53:38.498Z,1010.37
2019-04-30T08:54:39.239Z,1010.40
2019-04-30T08:55:39.019Z,1010.41
2019-04-30T08:56:38.803Z,1010.43
2019-04-30T08:57:37.207Z,1010.29
2019-04-30T08:58:39.078Z,1010.27
2019-04-30T08:59:39.370Z,1010.25
2019-04-30T09:00:38.534Z,1010.24
2019-04-30T09:01:38.720Z,1010.33
2019-04-30T09:02:38.811Z,1010.19
2019-04-30T09:03:39.143Z,1010.24
2019-04-30T09:04:38.840Z,1010.23
2019-04-30T09:05:38.609Z,1010.28
2019-04-30T09:06:38.923Z,1010.23
2019-04-30T09:07:38.687Z,1010.23
2019-04-30T09:08:37.078Z,1010.34
2019-04-30T09:09:38.884Z,1010.27
2019-04-30T09:10:37.063Z,1010.29
2019-04-30T09:11:51.397Z,1010.28
2019-04-30T09:12:39.873Z,1010.28
2019-04-30T09:13:38.858Z,1010.24
2019-04-30T09:14:40.441Z,1010.24
2019-04-30T09:15:37.001Z,1010.21
2019-04-30T09:16:39.081Z,1010.23
2019-04-30T09:17:38.573Z,1010.15
2019-04-30T09:18:49.450Z,1010.12
2019-04-30T09:19:38.585Z,1010.15
2019-04-30T09:20:36.943Z,1010.16
2019-04-30T09:21:39.960Z,1010.15
2019-04-30T09:22:36.931Z,1010.12
2019-04-30T09:23:44.692Z,1010.10
2019-04-30T09:24:39.224Z,1010.10
2019-04-30T09:25:36.894Z,1010.07
2019-04-30T09:26:36.875Z,1010.05
2019-04-30T09:27:36.864Z,1010.02
2019-04-30T09:28:36.860Z,1010.04
2019-04-30T09:29:36.866Z,1010.05
2019-04-30T09:30:38.623Z,1009.98
2019-04-30T09:31:36.831Z,1009.99
2019-04-30T09:32:36.815Z,1010.01
2019-04-30T09:33:36.807Z,1010.03
2019-04-30T09:34:38.455Z,1010.02
2019-04-30T09:35:36.796Z,1010.00
2019-04-30T09:36:39.012Z,1010.01
2019-04-30T09:37:36.762Z,1009.93
2019-04-30T09:38:36.749Z,1009.90
2019-04-30T09:39:36.747Z,1009.90
2019-04-30T09:40:39.837Z,1009.85
2019-04-30T09:41:36.726Z,1009.82
2019-04-30T09:42:36.706Z,1009.87
2019-04-30T09:43:36.699Z,1009.78
2019-04-30T09:44:36.687Z,1009.77
2019-04-30T09:45:38.429Z,1009.78
2019-04-30T09:46:36.663Z,1009.80
2019-04-30T09:47:36.657Z,1009.80
2019-04-30T09:48:38.494Z,1009.79
2019-04-30T09:49:49.412Z,1009.79
2019-04-30T09:50:38.805Z,1009.81
2019-04-30T09:51:36.646Z,1009.78
2019-04-30T09:52:39.128Z,1009.72
2019-04-30T09:53:36.626Z,1009.75
2019-04-30T09:54:36.581Z,1009.75
2019-04-30T09:55:36.568Z,1009.73
2019-04-30T09:56:36.566Z,1009.73
2019-04-30T09:57:36.586Z,1009.76
2019-04-30T09:58:36.537Z,1009.66
2019-04-30T09:59:36.522Z,1009.64
2019-04-30T10:00:36.511Z,1009.62
2019-04-30T10:01:36.501Z,1009.69
2019-04-30T10:02:36.493Z,1009.63
2019-04-30T10:03:37.329Z,1009.68
2019-04-30T10:04:36.783Z,1009.71
2019-04-30T10:05:36.460Z,1009.73
2019-04-30T10:06:40.033Z,1009.72
2019-04-30T10:07:36.437Z,1009.73
2019-04-30T10:08:47.838Z,1009.64
2019-04-30T10:09:37.412Z,1009.63
2019-04-30T10:10:36.405Z,1009.65
2019-04-30T10:11:36.395Z,1009.64
2019-04-30T10:12:36.382Z,1009.65
2019-04-30T10:13:36.373Z,1009.63
2019-04-30T10:14:36.402Z,1009.72
2019-04-30T10:15:36.350Z,1009.69
2019-04-30T10:16:36.340Z,1009.63
2019-04-30T10:17:36.334Z,1009.66
2019-04-30T10:18:36.317Z,1009.67
2019-04-30T10:19:36.312Z,1009.63
2019-04-30T10:20:46.705Z,1009.66
2019-04-30T10:21:36.283Z,1009.58
2019-04-30T10:22:36.276Z,1009.59
2019-04-30T10:23:36.273Z,1009.60
2019-04-30T10:24:36.250Z,1009.55
2019-04-30T10:25:36.291Z,1009.53
2019-04-30T10:26:36.246Z,1009.57
2019-04-30T10:27:36.254Z,1009.57
2019-04-30T10:28:36.239Z,1009.54
2019-04-30T10:29:36.204Z,1009.61
2019-04-30T10:30:36.194Z,1009.57
2019-04-30T10:31:36.228Z,1009.59
2019-04-30T10:32:36.172Z,1009.55
2019-04-30T10:33:36.160Z,1009.54
2019-04-30T10:34:36.151Z,1009.47
2019-04-30T10:35:36.141Z,1009.45
2019-04-30T10:36:36.131Z,1009.47
2019-04-30T10:37:36.166Z,1009.45
2019-04-30T10:38:36.112Z,1009.49
2019-04-30T10:39:36.167Z,1009.49
2019-04-30T10:40:36.098Z,1009.54
2019-04-30T10:41:36.079Z,1009.43
2019-04-30T10:42:36.065Z,1009.48
2019-04-30T10:43:36.059Z,1009.37
2019-04-30T10:44:36.037Z,1009.43
2019-04-30T10:45:36.028Z,1009.41
2019-04-30T10:46:36.086Z,1009.45
2019-04-30T10:47:36.023Z,1009.41
2019-04-30T10:48:35.998Z,1009.43
2019-04-30T10:49:35.995Z,1009.40
2019-04-30T10:50:35.992Z,1009.32
2019-04-30T10:51:46.735Z,1009.36
2019-04-30T10:52:35.952Z,1009.27
2019-04-30T10:53:35.954Z,1009.31
2019-04-30T10:54:35.940Z,1009.31
2019-04-30T10:55:35.934Z,1009.26
2019-04-30T10:56:35.919Z,1009.25
2019-04-30T10:57:35.921Z,1009.21
2019-04-30T10:58:35.915Z,1009.24
2019-04-30T10:59:35.889Z,1009.25
2019-04-30T11:00:35.882Z,1009.15
2019-04-30T11:01:35.857Z,1009.13
2019-04-30T11:02:35.851Z,1009.08
2019-04-30T11:03:35.878Z,1009.13
2019-04-30T11:04:35.825Z,1009.06
2019-04-30T11:05:35.824Z,1009.04
2019-04-30T11:06:35.805Z,1009.03
2019-04-30T11:07:35.799Z,1009.01
2019-04-30T11:08:35.784Z,1008.95
2019-04-30T11:09:35.786Z,1008.99
2019-04-30T11:10:35.777Z,1008.95
2019-04-30T11:11:35.757Z,1008.89
2019-04-30T11:12:35.751Z,1008.93
2019-04-30T11:13:35.741Z,1008.96
2019-04-30T11:14:35.733Z,1008.92
2019-04-30T11:15:35.751Z,1008.88
2019-04-30T11:16:35.721Z,1008.83
2019-04-30T11:17:35.856Z,1008.78
2019-04-30T11:18:35.864Z,1008.79
2019-04-30T11:19:35.892Z,1008.80
2019-04-30T11:20:35.882Z,1008.75
2019-04-30T11:21:35.817Z,1008.77
2019-04-30T11:22:47.902Z,1008.77
2019-04-30T11:23:35.764Z,1008.82
2019-04-30T11:24:40.999Z,1008.77
2019-04-30T11:25:37.338Z,1008.80
2019-04-30T11:26:36.080Z,1008.78
2019-04-30T11:27:36.128Z,1008.74
2019-04-30T11:28:35.790Z,1008.72
2019-04-30T11:29:35.679Z,1008.75
2019-04-30T11:30:35.774Z,1008.73
2019-04-30T11:31:35.765Z,1008.77
2019-04-30T11:32:35.795Z,1008.69
2019-04-30T11:33:35.764Z,1008.72
2019-04-30T11:34:35.512Z,1008.66
2019-04-30T11:35:35.497Z,1008.60
2019-04-30T11:36:35.494Z,1008.61
2019-04-30T11:37:35.499Z,1008.60
2019-04-30T11:38:35.471Z,1008.64
2019-04-30T11:39:35.456Z,1008.59
2019-04-30T11:40:37.953Z,1008.61
2019-04-30T11:41:35.448Z,1008.62
2019-04-30T11:42:35.427Z,1008.59
2019-04-30T11:43:35.425Z,1008.56
2019-04-30T11:44:35.403Z,1008.54
2019-04-30T11:45:35.391Z,1008.52
2019-04-30T11:46:35.401Z,1008.52
2019-04-30T11:47:35.372Z,1008.53
2019-04-30T11:48:35.402Z,1008.49
2019-04-30T11:49:35.352Z,1008.54
2019-04-30T11:50:35.336Z,1008.46
2019-04-30T11:51:35.331Z,1008.45
2019-04-30T11:52:35.335Z,1008.51
2019-04-30T11:53:49.012Z,1008.47
2019-04-30T11:54:35.296Z,1008.52
2019-04-30T11:55:35.285Z,1008.46
2019-04-30T11:56:38.282Z,1008.50
2019-04-30T11:57:35.264Z,1008.50
2019-04-30T11:58:35.258Z,1008.44
2019-04-30T11:59:35.249Z,1008.42
2019-04-30T12:00:35.229Z,1008.39
2019-04-30T12:01:35.233Z,1008.36
2019-04-30T12:02:35.217Z,1008.35
2019-04-30T12:03:35.204Z,1008.28
2019-04-30T12:04:35.192Z,1008.34
2019-04-30T12:05:35.177Z,1008.29
2019-04-30T12:06:35.213Z,1008.24